Terminal Aerodrome Forecast
Issued by NWS Cleveland, OH

Home | Current Version | Previous Version | Graphics & Text | Print | Product List | Glossary On
Versions: 1 2 3 4 5 6 7 8 9 10 11 12 13 14 15 16 17
000
FTUS41 KCLE 182300
TAFCAK
TAF
KCAK 182339Z 1900/1924 27005KT 6SM -SN OVC015
      TEMPO 1902/1906 OVC009
     FM190600 30005KT P6SM -SN OVC010
     FM191300 32005KT P6SM OVC012=

USA.gov is the U.S. government's official web portal to all federal, state and local government web resources and services.